sensor_id;sensor_type;location;lat;lon;timestamp;temperature;humidity
42973;DHT22;28610;51.214;6.962;2022-10-26T00:01:15;13.30;99.20
42973;DHT22;28610;51.214;6.962;2022-10-26T00:04:01;13.30;99.00
42973;DHT22;28610;51.214;6.962;2022-10-26T00:06:46;13.40;99.00
42973;DHT22;28610;51.214;6.962;2022-10-26T00:09:33;13.40;99.00
42973;DHT22;28610;51.214;6.962;2022-10-26T00:12:18;13.40;98.90
42973;DHT22;28610;51.214;6.962;2022-10-26T00:15:05;13.40;98.90
42973;DHT22;28610;51.214;6.962;2022-10-26T00:17:50;13.50;99.00
42973;DHT22;28610;51.214;6.962;2022-10-26T00:20:36;13.50;98.90
42973;DHT22;28610;51.214;6.962;2022-10-26T00:23:21;13.60;98.70
42973;DHT22;28610;51.214;6.962;2022-10-26T00:26:08;13.60;98.70
42973;DHT22;28610;51.214;6.962;2022-10-26T00:28:55;13.60;98.70
42973;DHT22;28610;51.214;6.962;2022-10-26T00:31:41;13.60;98.70
42973;DHT22;28610;51.214;6.962;2022-10-26T00:34:26;13.50;98.80
42973;DHT22;28610;51.214;6.962;2022-10-26T00:37:11;13.50;98.60
42973;DHT22;28610;51.214;6.962;2022-10-26T00:39:57;13.50;98.80
42973;DHT22;28610;51.214;6.962;2022-10-26T00:42:43;13.50;98.80
42973;DHT22;28610;51.214;6.962;2022-10-26T00:45:30;13.50;98.90
42973;DHT22;28610;51.214;6.962;2022-10-26T00:48:21;13.40;98.90
42973;DHT22;28610;51.214;6.962;2022-10-26T00:51:11;13.40;99.00
42973;DHT22;28610;51.214;6.962;2022-10-26T00:53:58;13.40;99.10
42973;DHT22;28610;51.214;6.962;2022-10-26T00:56:45;13.40;99.20
42973;DHT22;28610;51.214;6.962;2022-10-26T00:59:32;13.40;99.10
42973;DHT22;28610;51.214;6.962;2022-10-26T01:02:18;13.40;99.10
42973;DHT22;28610;51.214;6.962;2022-10-26T01:05:04;13.40;99.20
42973;DHT22;28610;51.214;6.962;2022-10-26T01:07:50;13.40;99.30
42973;DHT22;28610;51.214;6.962;2022-10-26T01:10:37;13.40;99.10
42973;DHT22;28610;51.214;6.962;2022-10-26T01:13:23;13.40;99.20
42973;DHT22;28610;51.214;6.962;2022-10-26T01:16:33;13.40;99.10
42973;DHT22;28610;51.214;6.962;2022-10-26T01:19:49;13.50;99.10
42973;DHT22;28610;51.214;6.962;2022-10-26T01:22:47;13.50;99.10
42973;DHT22;28610;51.214;6.962;2022-10-26T01:25:45;13.50;98.90
42973;DHT22;28610;51.214;6.962;2022-10-26T01:28:43;13.50;98.90
42973;DHT22;28610;51.214;6.962;2022-10-26T01:31:40;13.60;99.10
42973;DHT22;28610;51.214;6.962;2022-10-26T01:34:31;13.60;98.90
42973;DHT22;28610;51.214;6.962;2022-10-26T01:37:22;13.60;99.00
42973;DHT22;28610;51.214;6.962;2022-10-26T01:40:13;13.60;98.90
42973;DHT22;28610;51.214;6.962;2022-10-26T01:43:06;13.70;99.00
42973;DHT22;28610;51.214;6.962;2022-10-26T01:45:53;13.70;98.80
42973;DHT22;28610;51.214;6.962;2022-10-26T01:48:41;13.70;98.90
42973;DHT22;28610;51.214;6.962;2022-10-26T01:51:28;13.70;98.80
42973;DHT22;28610;51.214;6.962;2022-10-26T01:54:14;13.70;98.80
42973;DHT22;28610;51.214;6.962;2022-10-26T01:57:02;13.80;98.80
42973;DHT22;28610;51.214;6.962;2022-10-26T01:59:59;13.80;98.60
42973;DHT22;28610;51.214;6.962;2022-10-26T02:02:55;13.80;98.70
42973;DHT22;28610;51.214;6.962;2022-10-26T02:05:54;13.80;98.80
42973;DHT22;28610;51.214;6.962;2022-10-26T02:08:53;13.80;98.60
42973;DHT22;28610;51.214;6.962;2022-10-26T02:11:42;13.90;98.70
42973;DHT22;28610;51.214;6.962;2022-10-26T02:14:35;13.80;98.70
42973;DHT22;28610;51.214;6.962;2022-10-26T02:17:26;13.90;98.80
42973;DHT22;28610;51.214;6.962;2022-10-26T02:20:16;13.80;98.60
42973;DHT22;28610;51.214;6.962;2022-10-26T02:23:06;13.90;98.60
42973;DHT22;28610;51.214;6.962;2022-10-26T02:25:58;13.90;98.50
42973;DHT22;28610;51.214;6.962;2022-10-26T02:28:47;13.90;98.50
42973;DHT22;28610;51.214;6.962;2022-10-26T02:31:35;13.90;98.60
42973;DHT22;28610;51.214;6.962;2022-10-26T02:34:24;13.90;98.50
42973;DHT22;28610;51.214;6.962;2022-10-26T02:37:11;13.90;98.60
42973;DHT22;28610;51.214;6.962;2022-10-26T02:40:00;14.00;98.30
42973;DHT22;28610;51.214;6.962;2022-10-26T02:42:47;14.00;98.30
42973;DHT22;28610;51.214;6.962;2022-10-26T02:45:38;14.00;98.40
42973;DHT22;28610;51.214;6.962;2022-10-26T02:48:25;14.00;98.40
42973;DHT22;28610;51.214;6.962;2022-10-26T02:51:15;14.10;98.40
42973;DHT22;28610;51.214;6.962;2022-10-26T02:54:06;14.10;98.30
42973;DHT22;28610;51.214;6.962;2022-10-26T02:56:58;14.10;98.10
42973;DHT22;28610;51.214;6.962;2022-10-26T02:59:45;14.10;98.30
42973;DHT22;28610;51.214;6.962;2022-10-26T03:02:31;14.10;98.20
42973;DHT22;28610;51.214;6.962;2022-10-26T03:05:19;14.10;98.20
42973;DHT22;28610;51.214;6.962;2022-10-26T03:08:05;14.10;98.20
42973;DHT22;28610;51.214;6.962;2022-10-26T03:10:51;14.10;98.10
42973;DHT22;28610;51.214;6.962;2022-10-26T03:13:37;14.10;98.30
42973;DHT22;28610;51.214;6.962;2022-10-26T03:16:23;14.20;98.10
42973;DHT22;28610;51.214;6.962;2022-10-26T03:19:08;14.20;98.30
42973;DHT22;28610;51.214;6.962;2022-10-26T03:21:54;14.20;98.40
42973;DHT22;28610;51.214;6.962;2022-10-26T03:24:40;14.20;98.20
42973;DHT22;28610;51.214;6.962;2022-10-26T03:27:26;14.20;98.20
42973;DHT22;28610;51.214;6.962;2022-10-26T03:30:13;14.30;98.10
42973;DHT22;28610;51.214;6.962;2022-10-26T03:32:58;14.30;98.10
42973;DHT22;28610;51.214;6.962;2022-10-26T03:35:43;14.30;98.10
42973;DHT22;28610;51.214;6.962;2022-10-26T03:38:29;14.30;98.10
42973;DHT22;28610;51.214;6.962;2022-10-26T03:41:15;14.40;97.90
42973;DHT22;28610;51.214;6.962;2022-10-26T03:44:00;14.40;97.90
42973;DHT22;28610;51.214;6.962;2022-10-26T03:46:47;14.40;97.80
42973;DHT22;28610;51.214;6.962;2022-10-26T03:49:32;14.40;97.80
42973;DHT22;28610;51.214;6.962;2022-10-26T03:52:19;14.40;97.70
42973;DHT22;28610;51.214;6.962;2022-10-26T03:55:05;14.40;97.80
42973;DHT22;28610;51.214;6.962;2022-10-26T03:57:50;14.50;97.80
42973;DHT22;28610;51.214;6.962;2022-10-26T04:00:36;14.50;97.80
42973;DHT22;28610;51.214;6.962;2022-10-26T04:03:23;14.40;97.80
42973;DHT22;28610;51.214;6.962;2022-10-26T04:06:08;14.40;97.90
42973;DHT22;28610;51.214;6.962;2022-10-26T04:08:54;14.40;97.90
42973;DHT22;28610;51.214;6.962;2022-10-26T04:11:44;14.40;97.80
42973;DHT22;28610;51.214;6.962;2022-10-26T04:14:30;14.50;97.70
42973;DHT22;28610;51.214;6.962;2022-10-26T04:17:15;14.40;97.80
42973;DHT22;28610;51.214;6.962;2022-10-26T04:20:02;14.40;97.90
42973;DHT22;28610;51.214;6.962;2022-10-26T04:22:56;14.50;97.90
42973;DHT22;28610;51.214;6.962;2022-10-26T04:25:42;14.50;97.90
42973;DHT22;28610;51.214;6.962;2022-10-26T04:28:27;14.40;97.90
42973;DHT22;28610;51.214;6.962;2022-10-26T04:31:12;14.40;98.00
42973;DHT22;28610;51.214;6.962;2022-10-26T04:33:58;14.40;98.10
42973;DHT22;28610;51.214;6.962;2022-10-26T04:36:45;14.40;98.00
42973;DHT22;28610;51.214;6.962;2022-10-26T04:39:30;14.40;97.90
42973;DHT22;28610;51.214;6.962;2022-10-26T04:42:16;14.40;97.90
42973;DHT22;28610;51.214;6.962;2022-10-26T04:45:01;14.40;98.10
42973;DHT22;28610;51.214;6.962;2022-10-26T04:47:47;14.40;98.10
42973;DHT22;28610;51.214;6.962;2022-10-26T04:50:33;14.40;98.10
42973;DHT22;28610;51.214;6.962;2022-10-26T04:53:20;14.50;98.00
42973;DHT22;28610;51.214;6.962;2022-10-26T04:56:05;14.50;97.80
42973;DHT22;28610;51.214;6.962;2022-10-26T04:58:52;14.50;97.80
42973;DHT22;28610;51.214;6.962;2022-10-26T05:01:38;14.50;97.90
42973;DHT22;28610;51.214;6.962;2022-10-26T05:04:23;14.50;97.80
42973;DHT22;28610;51.214;6.962;2022-10-26T05:07:08;14.50;97.70
42973;DHT22;28610;51.214;6.962;2022-10-26T05:09:55;14.40;97.90
42973;DHT22;28610;51.214;6.962;2022-10-26T05:12:41;14.40;97.70
42973;DHT22;28610;51.214;6.962;2022-10-26T05:15:26;14.40;98.20
42973;DHT22;28610;51.214;6.962;2022-10-26T05:18:12;14.30;98.00
42973;DHT22;28610;51.214;6.962;2022-10-26T05:20:58;14.30;98.20
42973;DHT22;28610;51.214;6.962;2022-10-26T05:23:43;14.20;98.30
42973;DHT22;28610;51.214;6.962;2022-10-26T05:26:33;14.20;98.60
42973;DHT22;28610;51.214;6.962;2022-10-26T05:29:19;14.20;98.20
42973;DHT22;28610;51.214;6.962;2022-10-26T05:32:04;14.20;98.20
42973;DHT22;28610;51.214;6.962;2022-10-26T05:34:50;14.30;98.00
42973;DHT22;28610;51.214;6.962;2022-10-26T05:37:35;14.30;98.00
42973;DHT22;28610;51.214;6.962;2022-10-26T05:40:21;14.30;97.90
42973;DHT22;28610;51.214;6.962;2022-10-26T05:43:08;14.30;97.60
42973;DHT22;28610;51.214;6.962;2022-10-26T05:45:53;14.30;97.40
42973;DHT22;28610;51.214;6.962;2022-10-26T05:48:39;14.40;97.40
42973;DHT22;28610;51.214;6.962;2022-10-26T05:51:24;14.40;97.10
42973;DHT22;28610;51.214;6.962;2022-10-26T05:54:10;14.50;97.10
42973;DHT22;28610;51.214;6.962;2022-10-26T05:56:55;14.50;97.00
42973;DHT22;28610;51.214;6.962;2022-10-26T05:59:43;14.50;96.60
42973;DHT22;28610;51.214;6.962;2022-10-26T06:02:33;14.50;96.30
42973;DHT22;28610;51.214;6.962;2022-10-26T06:05:25;14.60;96.40
42973;DHT22;28610;51.214;6.962;2022-10-26T06:08:12;14.60;95.80
42973;DHT22;28610;51.214;6.962;2022-10-26T06:10:58;14.70;95.80
42973;DHT22;28610;51.214;6.962;2022-10-26T06:13:44;14.70;95.60
42973;DHT22;28610;51.214;6.962;2022-10-26T06:16:39;14.80;95.50
42973;DHT22;28610;51.214;6.962;2022-10-26T06:19:36;14.80;95.20
42973;DHT22;28610;51.214;6.962;2022-10-26T06:22:37;14.90;95.00
42973;DHT22;28610;51.214;6.962;2022-10-26T06:25:27;14.90;95.10
42973;DHT22;28610;51.214;6.962;2022-10-26T06:28:24;14.90;94.70
42973;DHT22;28610;51.214;6.962;2022-10-26T06:31:12;15.00;94.50
42973;DHT22;28610;51.214;6.962;2022-10-26T06:34:00;15.00;94.70
42973;DHT22;28610;51.214;6.962;2022-10-26T06:36:46;15.00;94.60
42973;DHT22;28610;51.214;6.962;2022-10-26T06:39:36;15.00;95.00
42973;DHT22;28610;51.214;6.962;2022-10-26T06:42:23;15.00;94.90
42973;DHT22;28610;51.214;6.962;2022-10-26T06:45:11;15.00;95.10
42973;DHT22;28610;51.214;6.962;2022-10-26T06:48:03;15.00;95.00
42973;DHT22;28610;51.214;6.962;2022-10-26T06:50:53;15.00;95.00
42973;DHT22;28610;51.214;6.962;2022-10-26T06:53:42;15.00;95.70
42973;DHT22;28610;51.214;6.962;2022-10-26T06:56:28;15.00;95.20
42973;DHT22;28610;51.214;6.962;2022-10-26T06:59:17;15.00;94.90
42973;DHT22;28610;51.214;6.962;2022-10-26T07:02:08;15.00;95.10
42973;DHT22;28610;51.214;6.962;2022-10-26T07:04:54;15.00;94.90
42973;DHT22;28610;51.214;6.962;2022-10-26T07:07:42;15.00;95.10
42973;DHT22;28610;51.214;6.962;2022-10-26T07:10:28;15.10;95.10
42973;DHT22;28610;51.214;6.962;2022-10-26T07:13:14;15.10;95.00
42973;DHT22;28610;51.214;6.962;2022-10-26T07:15:59;15.10;94.90
42973;DHT22;28610;51.214;6.962;2022-10-26T07:18:45;15.10;95.00
42973;DHT22;28610;51.214;6.962;2022-10-26T07:21:30;15.10;95.60
42973;DHT22;28610;51.214;6.962;2022-10-26T07:24:17;15.10;95.00
42973;DHT22;28610;51.214;6.962;2022-10-26T07:27:03;15.10;95.20
42973;DHT22;28610;51.214;6.962;2022-10-26T07:29:48;15.20;95.50
42973;DHT22;28610;51.214;6.962;2022-10-26T07:32:34;15.20;95.30
42973;DHT22;28610;51.214;6.962;2022-10-26T07:35:19;15.30;95.30
42973;DHT22;28610;51.214;6.962;2022-10-26T07:38:05;15.40;94.90
42973;DHT22;28610;51.214;6.962;2022-10-26T07:40:52;15.50;94.80
42973;DHT22;28610;51.214;6.962;2022-10-26T07:43:39;15.60;95.00
42973;DHT22;28610;51.214;6.962;2022-10-26T07:46:25;15.60;94.70
42973;DHT22;28610;51.214;6.962;2022-10-26T07:49:10;15.70;94.70
42973;DHT22;28610;51.214;6.962;2022-10-26T07:51:55;15.80;94.60
42973;DHT22;28610;51.214;6.962;2022-10-26T07:54:41;15.90;94.50
42973;DHT22;28610;51.214;6.962;2022-10-26T07:57:27;16.00;94.30
42973;DHT22;28610;51.214;6.962;2022-10-26T08:00:14;16.00;93.80
42973;DHT22;28610;51.214;6.962;2022-10-26T08:02:59;16.00;94.10
42973;DHT22;28610;51.214;6.962;2022-10-26T08:05:46;16.10;94.00
42973;DHT22;28610;51.214;6.962;2022-10-26T08:08:34;16.30;94.00
42973;DHT22;28610;51.214;6.962;2022-10-26T08:11:19;16.40;93.40
42973;DHT22;28610;51.214;6.962;2022-10-26T08:14:06;16.50;93.50
42973;DHT22;28610;51.214;6.962;2022-10-26T08:16:51;16.40;93.30
42973;DHT22;28610;51.214;6.962;2022-10-26T08:19:37;16.40;93.70
42973;DHT22;28610;51.214;6.962;2022-10-26T08:22:22;16.30;93.60
42973;DHT22;28610;51.214;6.962;2022-10-26T08:25:08;16.30;93.60
42973;DHT22;28610;51.214;6.962;2022-10-26T08:27:53;16.30;93.70
42973;DHT22;28610;51.214;6.962;2022-10-26T08:30:41;16.30;93.90
42973;DHT22;28610;51.214;6.962;2022-10-26T08:33:27;16.30;93.60
42973;DHT22;28610;51.214;6.962;2022-10-26T08:36:12;16.40;93.60
42973;DHT22;28610;51.214;6.962;2022-10-26T08:39:02;16.40;93.60
42973;DHT22;28610;51.214;6.962;2022-10-26T08:41:49;16.50;93.90
42973;DHT22;28610;51.214;6.962;2022-10-26T08:44:43;16.50;93.20
42973;DHT22;28610;51.214;6.962;2022-10-26T08:47:33;16.60;93.50
42973;DHT22;28610;51.214;6.962;2022-10-26T08:50:25;16.60;93.10
42973;DHT22;28610;51.214;6.962;2022-10-26T08:53:16;16.40;93.60
42973;DHT22;28610;51.214;6.962;2022-10-26T08:56:09;16.40;93.60
42973;DHT22;28610;51.214;6.962;2022-10-26T08:58:57;16.30;94.10
42973;DHT22;28610;51.214;6.962;2022-10-26T09:01:44;16.20;94.50
42973;DHT22;28610;51.214;6.962;2022-10-26T09:04:31;16.10;94.60
42973;DHT22;28610;51.214;6.962;2022-10-26T09:07:39;16.10;94.80
42973;DHT22;28610;51.214;6.962;2022-10-26T09:10:36;16.10;94.80
42973;DHT22;28610;51.214;6.962;2022-10-26T09:13:31;16.20;94.60
42973;DHT22;28610;51.214;6.962;2022-10-26T09:16:24;16.50;94.50
42973;DHT22;28610;51.214;6.962;2022-10-26T09:19:27;16.60;93.70
42973;DHT22;28610;51.214;6.962;2022-10-26T09:22:20;16.80;93.90
42973;DHT22;28610;51.214;6.962;2022-10-26T09:25:17;16.80;93.60
42973;DHT22;28610;51.214;6.962;2022-10-26T09:28:03;16.90;93.40
42973;DHT22;28610;51.214;6.962;2022-10-26T09:30:50;17.00;93.70
42973;DHT22;28610;51.214;6.962;2022-10-26T09:33:38;17.10;93.20
42973;DHT22;28610;51.214;6.962;2022-10-26T09:36:24;17.20;92.80
42973;DHT22;28610;51.214;6.962;2022-10-26T09:39:16;17.50;92.50
42973;DHT22;28610;51.214;6.962;2022-10-26T09:42:13;17.40;92.00
42973;DHT22;28610;51.214;6.962;2022-10-26T09:45:04;17.40;92.50
42973;DHT22;28610;51.214;6.962;2022-10-26T09:47:53;17.50;92.70
42973;DHT22;28610;51.214;6.962;2022-10-26T09:50:39;17.30;92.40
42973;DHT22;28610;51.214;6.962;2022-10-26T09:53:26;17.20;92.70
42973;DHT22;28610;51.214;6.962;2022-10-26T09:56:13;17.10;93.10
42973;DHT22;28610;51.214;6.962;2022-10-26T09:59:01;17.30;93.10
42973;DHT22;28610;51.214;6.962;2022-10-26T10:01:48;17.70;92.50
42973;DHT22;28610;51.214;6.962;2022-10-26T10:04:33;18.50;90.60
42973;DHT22;28610;51.214;6.962;2022-10-26T10:07:19;19.00;90.00
42973;DHT22;28610;51.214;6.962;2022-10-26T10:10:13;20.00;85.40
42973;DHT22;28610;51.214;6.962;2022-10-26T10:13:13;21.10;79.10
42973;DHT22;28610;51.214;6.962;2022-10-26T10:16:04;22.40;72.00
42973;DHT22;28610;51.214;6.962;2022-10-26T10:18:53;23.30;68.00
42973;DHT22;28610;51.214;6.962;2022-10-26T10:21:43;23.50;64.10
42973;DHT22;28610;51.214;6.962;2022-10-26T10:24:30;24.30;61.60
42973;DHT22;28610;51.214;6.962;2022-10-26T10:27:17;24.20;59.30
42973;DHT22;28610;51.214;6.962;2022-10-26T10:30:20;23.90;58.40
42973;DHT22;28610;51.214;6.962;2022-10-26T10:33:10;23.60;59.50
42973;DHT22;28610;51.214;6.962;2022-10-26T10:35:56;23.50;59.80
42973;DHT22;28610;51.214;6.962;2022-10-26T10:38:43;24.20;59.40
42973;DHT22;28610;51.214;6.962;2022-10-26T10:41:31;24.00;56.50
42973;DHT22;28610;51.214;6.962;2022-10-26T10:44:22;24.60;57.30
42973;DHT22;28610;51.214;6.962;2022-10-26T10:47:18;24.10;56.10
42973;DHT22;28610;51.214;6.962;2022-10-26T10:50:10;24.10;57.80
42973;DHT22;28610;51.214;6.962;2022-10-26T10:53:21;23.60;58.30
42973;DHT22;28610;51.214;6.962;2022-10-26T10:56:18;24.60;57.20
42973;DHT22;28610;51.214;6.962;2022-10-26T11:06:00;24.70;55.20
42973;DHT22;28610;51.214;6.962;2022-10-26T11:08:53;24.00;58.60
42973;DHT22;28610;51.214;6.962;2022-10-26T11:11:42;22.70;66.40
42973;DHT22;28610;51.214;6.962;2022-10-26T11:14:31;21.60;72.70
42973;DHT22;28610;51.214;6.962;2022-10-26T11:17:21;21.40;75.60
42973;DHT22;28610;51.214;6.962;2022-10-26T11:20:12;21.10;77.80
42973;DHT22;28610;51.214;6.962;2022-10-26T11:23:04;20.90;78.50
42973;DHT22;28610;51.214;6.962;2022-10-26T11:25:54;20.60;80.60
42973;DHT22;28610;51.214;6.962;2022-10-26T11:28:46;20.60;81.80
42973;DHT22;28610;51.214;6.962;2022-10-26T11:31:37;20.60;82.80
42973;DHT22;28610;51.214;6.962;2022-10-26T11:34:30;20.80;82.90
42973;DHT22;28610;51.214;6.962;2022-10-26T11:37:24;20.70;82.00
42973;DHT22;28610;51.214;6.962;2022-10-26T11:40:19;20.80;83.10
42973;DHT22;28610;51.214;6.962;2022-10-26T11:43:13;20.70;83.80
42973;DHT22;28610;51.214;6.962;2022-10-26T11:46:03;20.80;82.90
42973;DHT22;28610;51.214;6.962;2022-10-26T11:48:53;21.10;83.50
42973;DHT22;28610;51.214;6.962;2022-10-26T11:51:42;21.20;82.70
42973;DHT22;28610;51.214;6.962;2022-10-26T11:54:33;21.30;82.10
42973;DHT22;28610;51.214;6.962;2022-10-26T11:57:21;21.30;82.10
42973;DHT22;28610;51.214;6.962;2022-10-26T12:00:13;21.20;82.60
42973;DHT22;28610;51.214;6.962;2022-10-26T12:03:03;21.30;82.00
42973;DHT22;28610;51.214;6.962;2022-10-26T12:05:51;21.30;83.30
42973;DHT22;28610;51.214;6.962;2022-10-26T12:08:40;21.20;82.70
42973;DHT22;28610;51.214;6.962;2022-10-26T12:11:35;21.10;83.10
42973;DHT22;28610;51.214;6.962;2022-10-26T12:14:25;21.10;83.10
42973;DHT22;28610;51.214;6.962;2022-10-26T12:17:16;21.10;83.50
42973;DHT22;28610;51.214;6.962;2022-10-26T12:20:11;21.00;83.60
42973;DHT22;28610;51.214;6.962;2022-10-26T12:23:05;21.10;82.90
42973;DHT22;28610;51.214;6.962;2022-10-26T12:29:46;21.20;82.00
42973;DHT22;28610;51.214;6.962;2022-10-26T12:35:43;21.40;81.00
42973;DHT22;28610;51.214;6.962;2022-10-26T12:41:55;21.50;81.50
42973;DHT22;28610;51.214;6.962;2022-10-26T12:45:00;21.50;82.20
42973;DHT22;28610;51.214;6.962;2022-10-26T12:48:01;21.30;81.30
42973;DHT22;28610;51.214;6.962;2022-10-26T12:50:47;21.20;82.40
42973;DHT22;28610;51.214;6.962;2022-10-26T12:53:33;21.20;81.90
42973;DHT22;28610;51.214;6.962;2022-10-26T12:56:25;21.20;82.00
42973;DHT22;28610;51.214;6.962;2022-10-26T12:59:20;21.30;81.80
42973;DHT22;28610;51.214;6.962;2022-10-26T13:02:35;21.20;81.60
42973;DHT22;28610;51.214;6.962;2022-10-26T13:05:45;21.20;81.90
42973;DHT22;28610;51.214;6.962;2022-10-26T13:08:40;21.00;82.40
42973;DHT22;28610;51.214;6.962;2022-10-26T13:11:29;21.00;82.20
42973;DHT22;28610;51.214;6.962;2022-10-26T13:14:19;20.90;82.80
42973;DHT22;28610;51.214;6.962;2022-10-26T13:17:21;21.10;83.50
42973;DHT22;28610;51.214;6.962;2022-10-26T13:20:16;21.00;82.60
42973;DHT22;28610;51.214;6.962;2022-10-26T13:23:02;21.00;83.00
42973;DHT22;28610;51.214;6.962;2022-10-26T13:26:04;21.00;82.80
42973;DHT22;28610;51.214;6.962;2022-10-26T13:28:51;20.90;83.40
42973;DHT22;28610;51.214;6.962;2022-10-26T13:31:54;21.00;83.20
42973;DHT22;28610;51.214;6.962;2022-10-26T13:34:41;20.90;83.40
42973;DHT22;28610;51.214;6.962;2022-10-26T13:37:31;20.90;82.20
42973;DHT22;28610;51.214;6.962;2022-10-26T13:43:05;20.90;82.00
42973;DHT22;28610;51.214;6.962;2022-10-26T13:45:54;20.90;81.30
42973;DHT22;28610;51.214;6.962;2022-10-26T13:48:41;20.90;81.30
42973;DHT22;28610;51.214;6.962;2022-10-26T13:51:38;21.00;81.30
42973;DHT22;28610;51.214;6.962;2022-10-26T13:54:31;20.90;80.90
42973;DHT22;28610;51.214;6.962;2022-10-26T13:57:21;20.80;80.80
42973;DHT22;28610;51.214;6.962;2022-10-26T14:00:16;20.70;80.70
42973;DHT22;28610;51.214;6.962;2022-10-26T14:03:12;20.70;81.30
42973;DHT22;28610;51.214;6.962;2022-10-26T14:05:58;20.70;81.20
42973;DHT22;28610;51.214;6.962;2022-10-26T14:08:44;20.70;81.60
42973;DHT22;28610;51.214;6.962;2022-10-26T14:11:41;20.70;81.80
42973;DHT22;28610;51.214;6.962;2022-10-26T14:14:29;20.70;82.40
42973;DHT22;28610;51.214;6.962;2022-10-26T14:17:18;20.70;81.30
42973;DHT22;28610;51.214;6.962;2022-10-26T14:20:04;20.70;81.70
42973;DHT22;28610;51.214;6.962;2022-10-26T14:22:50;20.60;81.40
42973;DHT22;28610;51.214;6.962;2022-10-26T14:25:35;20.60;82.00
42973;DHT22;28610;51.214;6.962;2022-10-26T14:28:23;20.50;82.10
42973;DHT22;28610;51.214;6.962;2022-10-26T14:31:13;20.40;81.90
42973;DHT22;28610;51.214;6.962;2022-10-26T14:33:59;20.40;82.20
42973;DHT22;28610;51.214;6.962;2022-10-26T14:36:48;20.40;83.00
42973;DHT22;28610;51.214;6.962;2022-10-26T14:39:37;20.40;83.00
42973;DHT22;28610;51.214;6.962;2022-10-26T14:42:26;20.30;82.80
42973;DHT22;28610;51.214;6.962;2022-10-26T14:45:24;20.30;82.50
42973;DHT22;28610;51.214;6.962;2022-10-26T14:48:19;20.30;82.70
42973;DHT22;28610;51.214;6.962;2022-10-26T14:51:10;20.30;82.70
42973;DHT22;28610;51.214;6.962;2022-10-26T14:54:00;20.30;83.20
42973;DHT22;28610;51.214;6.962;2022-10-26T14:56:46;20.20;82.60
42973;DHT22;28610;51.214;6.962;2022-10-26T14:59:32;20.20;82.40
42973;DHT22;28610;51.214;6.962;2022-10-26T15:02:20;20.10;83.10
42973;DHT22;28610;51.214;6.962;2022-10-26T15:05:19;20.10;82.70
42973;DHT22;28610;51.214;6.962;2022-10-26T15:08:39;20.00;83.40
42973;DHT22;28610;51.214;6.962;2022-10-26T15:11:24;20.00;83.50
42973;DHT22;28610;51.214;6.962;2022-10-26T15:14:11;19.90;84.00
42973;DHT22;28610;51.214;6.962;2022-10-26T15:16:57;19.90;84.20
42973;DHT22;28610;51.214;6.962;2022-10-26T15:19:44;19.80;85.00
42973;DHT22;28610;51.214;6.962;2022-10-26T15:22:30;19.80;85.60
42973;DHT22;28610;51.214;6.962;2022-10-26T15:25:17;19.80;86.00
42973;DHT22;28610;51.214;6.962;2022-10-26T15:28:08;19.70;86.70
42973;DHT22;28610;51.214;6.962;2022-10-26T15:31:01;19.70;88.10
42973;DHT22;28610;51.214;6.962;2022-10-26T15:34:06;19.60;87.50
42973;DHT22;28610;51.214;6.962;2022-10-26T15:36:57;19.50;87.70
42973;DHT22;28610;51.214;6.962;2022-10-26T15:39:43;19.50;88.60
42973;DHT22;28610;51.214;6.962;2022-10-26T15:42:28;19.40;88.90
42973;DHT22;28610;51.214;6.962;2022-10-26T15:45:16;19.30;89.50
42973;DHT22;28610;51.214;6.962;2022-10-26T15:48:17;19.30;89.60
42973;DHT22;28610;51.214;6.962;2022-10-26T15:51:03;19.20;90.30
42973;DHT22;28610;51.214;6.962;2022-10-26T15:53:50;19.20;90.40
42973;DHT22;28610;51.214;6.962;2022-10-26T15:56:36;19.10;90.30
42973;DHT22;28610;51.214;6.962;2022-10-26T15:59:22;19.00;90.00
42973;DHT22;28610;51.214;6.962;2022-10-26T16:02:12;19.00;90.50
42973;DHT22;28610;51.214;6.962;2022-10-26T16:04:57;18.90;90.50
42973;DHT22;28610;51.214;6.962;2022-10-26T16:07:44;18.80;91.00
42973;DHT22;28610;51.214;6.962;2022-10-26T16:10:31;18.70;91.30
42973;DHT22;28610;51.214;6.962;2022-10-26T16:13:17;18.60;91.20
42973;DHT22;28610;51.214;6.962;2022-10-26T16:16:03;18.60;91.30
42973;DHT22;28610;51.214;6.962;2022-10-26T16:18:52;18.50;91.70
42973;DHT22;28610;51.214;6.962;2022-10-26T16:21:37;18.40;91.80
42973;DHT22;28610;51.214;6.962;2022-10-26T16:24:24;18.40;91.50
42973;DHT22;28610;51.214;6.962;2022-10-26T16:27:11;18.30;91.90
42973;DHT22;28610;51.214;6.962;2022-10-26T16:29:56;18.30;91.80
42973;DHT22;28610;51.214;6.962;2022-10-26T16:32:42;18.20;92.10
42973;DHT22;28610;51.214;6.962;2022-10-26T16:35:27;18.10;92.40
42973;DHT22;28610;51.214;6.962;2022-10-26T16:38:12;18.00;92.50
42973;DHT22;28610;51.214;6.962;2022-10-26T16:41:03;18.00;92.70
42973;DHT22;28610;51.214;6.962;2022-10-26T16:43:50;17.90;93.10
42973;DHT22;28610;51.214;6.962;2022-10-26T16:46:35;17.90;93.30
42973;DHT22;28610;51.214;6.962;2022-10-26T16:49:21;17.80;93.30
42973;DHT22;28610;51.214;6.962;2022-10-26T16:52:06;17.80;93.30
42973;DHT22;28610;51.214;6.962;2022-10-26T16:54:52;17.70;93.70
42973;DHT22;28610;51.214;6.962;2022-10-26T16:57:37;17.70;93.80
42973;DHT22;28610;51.214;6.962;2022-10-26T17:00:24;17.70;93.80
42973;DHT22;28610;51.214;6.962;2022-10-26T17:03:10;17.70;94.00
42973;DHT22;28610;51.214;6.962;2022-10-26T17:05:56;17.70;94.10
42973;DHT22;28610;51.214;6.962;2022-10-26T17:08:42;17.70;93.90
42973;DHT22;28610;51.214;6.962;2022-10-26T17:11:27;17.70;94.00
42973;DHT22;28610;51.214;6.962;2022-10-26T17:14:13;17.60;94.10
42973;DHT22;28610;51.214;6.962;2022-10-26T17:16:59;17.50;94.40
42973;DHT22;28610;51.214;6.962;2022-10-26T17:19:45;17.50;94.30
42973;DHT22;28610;51.214;6.962;2022-10-26T17:22:30;17.40;94.50
42973;DHT22;28610;51.214;6.962;2022-10-26T17:25:16;17.40;94.40
42973;DHT22;28610;51.214;6.962;2022-10-26T17:28:01;17.40;94.20
42973;DHT22;28610;51.214;6.962;2022-10-26T17:30:47;17.40;94.40
42973;DHT22;28610;51.214;6.962;2022-10-26T17:33:34;17.40;94.40
42973;DHT22;28610;51.214;6.962;2022-10-26T17:36:22;17.40;94.00
42973;DHT22;28610;51.214;6.962;2022-10-26T17:39:08;17.50;94.30
42973;DHT22;28610;51.214;6.962;2022-10-26T17:41:54;17.50;94.00
42973;DHT22;28610;51.214;6.962;2022-10-26T17:44:39;17.60;94.50
42973;DHT22;28610;51.214;6.962;2022-10-26T17:47:25;17.70;94.00
42973;DHT22;28610;51.214;6.962;2022-10-26T17:50:11;17.70;94.10
42973;DHT22;28610;51.214;6.962;2022-10-26T17:52:57;17.80;93.60
42973;DHT22;28610;51.214;6.962;2022-10-26T17:55:42;17.90;93.30
42973;DHT22;28610;51.214;6.962;2022-10-26T17:58:28;17.90;92.90
42973;DHT22;28610;51.214;6.962;2022-10-26T18:01:13;18.00;92.70
42973;DHT22;28610;51.214;6.962;2022-10-26T18:03:58;18.00;93.50
42973;DHT22;28610;51.214;6.962;2022-10-26T18:06:46;18.00;93.40